sensor_id;sensor_type;location;lat;lon;timestamp;P1;durP1;ratioP1;P2;durP2;ratioP2
9052;SDS011;4561;47.450;7.516;2023-04-22T00:01:15;1.60;;;1.20;;
9052;SDS011;4561;47.450;7.516;2023-04-22T00:04:38;1.90;;;1.03;;
9052;SDS011;4561;47.450;7.516;2023-04-22T00:08:00;1.20;;;1.10;;
9052;SDS011;4561;47.450;7.516;2023-04-22T00:11:20;1.20;;;1.10;;
9052;SDS011;4561;47.450;7.516;2023-04-22T00:14:41;1.27;;;1.00;;
9052;SDS011;4561;47.450;7.516;2023-04-22T00:18:01;1.40;;;1.30;;
9052;SDS011;4561;47.450;7.516;2023-04-22T00:21:26;2.57;;;1.53;;
9052;SDS011;4561;47.450;7.516;2023-04-22T00:24:46;1.73;;;1.60;;
9052;SDS011;4561;47.450;7.516;2023-04-22T00:28:09;1.60;;;1.47;;
9052;SDS011;4561;47.450;7.516;2023-04-22T00:31:30;1.47;;;1.20;;
9052;SDS011;4561;47.450;7.516;2023-04-22T00:34:50;1.40;;;1.30;;
9052;SDS011;4561;47.450;7.516;2023-04-22T00:38:11;1.50;;;1.40;;
9052;SDS011;4561;47.450;7.516;2023-04-22T00:41:31;1.30;;;1.20;;
9052;SDS011;4561;47.450;7.516;2023-04-22T00:44:52;3.23;;;2.10;;
9052;SDS011;4561;47.450;7.516;2023-04-22T00:48:15;2.50;;;2.30;;
9052;SDS011;4561;47.450;7.516;2023-04-22T00:51:35;13.87;;;2.03;;
9052;SDS011;4561;47.450;7.516;2023-04-22T00:54:56;4.07;;;1.73;;
9052;SDS011;4561;47.450;7.516;2023-04-22T00:58:16;1.93;;;1.43;;
9052;SDS011;4561;47.450;7.516;2023-04-22T01:01:38;2.10;;;1.13;;
9052;SDS011;4561;47.450;7.516;2023-04-22T01:04:58;1.40;;;1.30;;
9052;SDS011;4561;47.450;7.516;2023-04-22T01:08:23;1.40;;;1.13;;
9052;SDS011;4561;47.450;7.516;2023-04-22T01:11:47;1.67;;;1.10;;
9052;SDS011;4561;47.450;7.516;2023-04-22T01:15:08;2.20;;;1.20;;
9052;SDS011;4561;47.450;7.516;2023-04-22T01:18:29;1.30;;;1.20;;
9052;SDS011;4561;47.450;7.516;2023-04-22T01:21:51;1.00;;;1.00;;
9052;SDS011;4561;47.450;7.516;2023-04-22T01:25:12;2.10;;;1.53;;
9052;SDS011;4561;47.450;7.516;2023-04-22T01:28:35;2.40;;;2.20;;
9052;SDS011;4561;47.450;7.516;2023-04-22T01:31:56;2.30;;;2.10;;
9052;SDS011;4561;47.450;7.516;2023-04-22T01:35:16;2.10;;;1.90;;
9052;SDS011;4561;47.450;7.516;2023-04-22T01:38:40;1.80;;;1.57;;
9052;SDS011;4561;47.450;7.516;2023-04-22T01:42:01;3.30;;;2.00;;
9052;SDS011;4561;47.450;7.516;2023-04-22T01:45:24;2.40;;;2.20;;
9052;SDS011;4561;47.450;7.516;2023-04-22T01:48:45;3.20;;;2.90;;
9052;SDS011;4561;47.450;7.516;2023-04-22T01:52:11;3.93;;;2.33;;
9052;SDS011;4561;47.450;7.516;2023-04-22T01:55:32;3.07;;;2.40;;
9052;SDS011;4561;47.450;7.516;2023-04-22T01:58:55;2.57;;;2.20;;
9052;SDS011;4561;47.450;7.516;2023-04-22T02:02:15;2.33;;;2.13;;
9052;SDS011;4561;47.450;7.516;2023-04-22T02:05:36;2.43;;;2.07;;
9052;SDS011;4561;47.450;7.516;2023-04-22T02:08:57;2.67;;;2.07;;
9052;SDS011;4561;47.450;7.516;2023-04-22T02:12:19;1.70;;;1.57;;
9052;SDS011;4561;47.450;7.516;2023-04-22T02:15:40;2.80;;;2.57;;
9052;SDS011;4561;47.450;7.516;2023-04-22T02:19:00;3.00;;;2.70;;
9052;SDS011;4561;47.450;7.516;2023-04-22T02:22:24;4.83;;;2.53;;
9052;SDS011;4561;47.450;7.516;2023-04-22T02:25:51;2.33;;;1.80;;
9052;SDS011;4561;47.450;7.516;2023-04-22T02:29:11;2.10;;;1.90;;
9052;SDS011;4561;47.450;7.516;2023-04-22T02:32:32;4.57;;;2.10;;
9052;SDS011;4561;47.450;7.516;2023-04-22T02:35:57;1.90;;;1.80;;
9052;SDS011;4561;47.450;7.516;2023-04-22T02:39:17;2.03;;;1.87;;
9052;SDS011;4561;47.450;7.516;2023-04-22T02:42:37;2.20;;;2.00;;
9052;SDS011;4561;47.450;7.516;2023-04-22T02:46:01;2.13;;;1.87;;
9052;SDS011;4561;47.450;7.516;2023-04-22T02:49:21;2.37;;;1.80;;
9052;SDS011;4561;47.450;7.516;2023-04-22T02:52:42;3.23;;;2.07;;
9052;SDS011;4561;47.450;7.516;2023-04-22T02:56:04;2.50;;;2.30;;
9052;SDS011;4561;47.450;7.516;2023-04-22T02:59:29;2.33;;;2.00;;
9052;SDS011;4561;47.450;7.516;2023-04-22T03:02:50;2.10;;;1.97;;
9052;SDS011;4561;47.450;7.516;2023-04-22T03:06:10;5.10;;;2.07;;
9052;SDS011;4561;47.450;7.516;2023-04-22T03:09:31;2.30;;;2.10;;
9052;SDS011;4561;47.450;7.516;2023-04-22T03:12:54;2.30;;;1.60;;
9052;SDS011;4561;47.450;7.516;2023-04-22T03:16:17;3.10;;;2.33;;
9052;SDS011;4561;47.450;7.516;2023-04-22T03:19:38;3.33;;;3.07;;
9052;SDS011;4561;47.450;7.516;2023-04-22T03:22:58;2.40;;;2.20;;
9052;SDS011;4561;47.450;7.516;2023-04-22T03:26:18;4.40;;;2.47;;
9052;SDS011;4561;47.450;7.516;2023-04-22T03:29:39;2.37;;;2.17;;
9052;SDS011;4561;47.450;7.516;2023-04-22T03:32:59;2.57;;;1.90;;
9052;SDS011;4561;47.450;7.516;2023-04-22T03:36:20;2.37;;;1.83;;
9052;SDS011;4561;47.450;7.516;2023-04-22T03:39:40;1.77;;;1.67;;
9052;SDS011;4561;47.450;7.516;2023-04-22T03:43:00;2.10;;;1.90;;
9052;SDS011;4561;47.450;7.516;2023-04-22T03:46:22;1.93;;;1.83;;
9052;SDS011;4561;47.450;7.516;2023-04-22T03:49:42;2.27;;;1.73;;
9052;SDS011;4561;47.450;7.516;2023-04-22T03:53:05;2.90;;;1.90;;
9052;SDS011;4561;47.450;7.516;2023-04-22T03:56:26;1.77;;;1.47;;
9052;SDS011;4561;47.450;7.516;2023-04-22T03:59:46;2.20;;;2.10;;
9052;SDS011;4561;47.450;7.516;2023-04-22T04:03:09;2.40;;;1.90;;
9052;SDS011;4561;47.450;7.516;2023-04-22T04:06:29;3.33;;;1.67;;
9052;SDS011;4561;47.450;7.516;2023-04-22T04:09:50;4.90;;;2.10;;
9052;SDS011;4561;47.450;7.516;2023-04-22T04:13:14;2.27;;;2.07;;
9052;SDS011;4561;47.450;7.516;2023-04-22T04:16:34;3.17;;;1.67;;
9052;SDS011;4561;47.450;7.516;2023-04-22T04:19:55;2.80;;;1.77;;
9052;SDS011;4561;47.450;7.516;2023-04-22T04:23:15;1.47;;;1.33;;
9052;SDS011;4561;47.450;7.516;2023-04-22T04:26:38;1.60;;;1.43;;
9052;SDS011;4561;47.450;7.516;2023-04-22T04:30:01;2.90;;;2.07;;
9052;SDS011;4561;47.450;7.516;2023-04-22T04:33:24;2.10;;;1.90;;
9052;SDS011;4561;47.450;7.516;2023-04-22T04:36:46;2.03;;;1.80;;
9052;SDS011;4561;47.450;7.516;2023-04-22T04:40:08;2.40;;;1.40;;
9052;SDS011;4561;47.450;7.516;2023-04-22T04:43:31;2.10;;;1.67;;
9052;SDS011;4561;47.450;7.516;2023-04-22T04:46:51;1.77;;;1.67;;
9052;SDS011;4561;47.450;7.516;2023-04-22T04:50:13;3.73;;;1.50;;
9052;SDS011;4561;47.450;7.516;2023-04-22T04:53:34;2.97;;;1.50;;
9052;SDS011;4561;47.450;7.516;2023-04-22T04:56:55;1.93;;;1.70;;
9052;SDS011;4561;47.450;7.516;2023-04-22T05:00:18;1.70;;;1.60;;
9052;SDS011;4561;47.450;7.516;2023-04-22T05:03:39;1.50;;;1.40;;
9052;SDS011;4561;47.450;7.516;2023-04-22T05:06:59;2.33;;;1.40;;
9052;SDS011;4561;47.450;7.516;2023-04-22T05:10:20;1.43;;;1.33;;
9052;SDS011;4561;47.450;7.516;2023-04-22T05:13:41;1.93;;;1.60;;
9052;SDS011;4561;47.450;7.516;2023-04-22T05:17:04;1.80;;;1.60;;
9052;SDS011;4561;47.450;7.516;2023-04-22T05:20:27;3.63;;;2.87;;
9052;SDS011;4561;47.450;7.516;2023-04-22T05:23:47;8.17;;;3.83;;
9052;SDS011;4561;47.450;7.516;2023-04-22T05:27:08;6.73;;;5.03;;
9052;SDS011;4561;47.450;7.516;2023-04-22T05:30:31;5.43;;;3.33;;
9052;SDS011;4561;47.450;7.516;2023-04-22T05:33:52;5.57;;;3.20;;
9052;SDS011;4561;47.450;7.516;2023-04-22T05:37:12;17.57;;;12.13;;
9052;SDS011;4561;47.450;7.516;2023-04-22T05:40:33;17.03;;;11.70;;
9052;SDS011;4561;47.450;7.516;2023-04-22T05:43:58;12.20;;;9.23;;
9052;SDS011;4561;47.450;7.516;2023-04-22T05:47:18;8.57;;;4.67;;
9052;SDS011;4561;47.450;7.516;2023-04-22T05:50:41;3.60;;;3.10;;
9052;SDS011;4561;47.450;7.516;2023-04-22T05:54:01;3.00;;;2.60;;
9052;SDS011;4561;47.450;7.516;2023-04-22T05:57:21;5.80;;;3.53;;
9052;SDS011;4561;47.450;7.516;2023-04-22T06:00:42;6.07;;;4.30;;
9052;SDS011;4561;47.450;7.516;2023-04-22T06:04:03;4.47;;;3.30;;
9052;SDS011;4561;47.450;7.516;2023-04-22T06:07:28;2.50;;;2.30;;
9052;SDS011;4561;47.450;7.516;2023-04-22T06:10:49;2.40;;;2.20;;
9052;SDS011;4561;47.450;7.516;2023-04-22T06:14:09;3.43;;;2.43;;
9052;SDS011;4561;47.450;7.516;2023-04-22T06:17:29;4.80;;;3.80;;
9052;SDS011;4561;47.450;7.516;2023-04-22T06:20:50;5.67;;;5.00;;
9052;SDS011;4561;47.450;7.516;2023-04-22T06:24:10;8.37;;;6.70;;
9052;SDS011;4561;47.450;7.516;2023-04-22T06:27:33;5.57;;;4.63;;
9052;SDS011;4561;47.450;7.516;2023-04-22T06:30:53;4.23;;;3.83;;
9052;SDS011;4561;47.450;7.516;2023-04-22T06:34:14;5.40;;;2.70;;
9052;SDS011;4561;47.450;7.516;2023-04-22T06:37:34;2.63;;;1.93;;
9052;SDS011;4561;47.450;7.516;2023-04-22T06:40:55;2.10;;;1.90;;
9052;SDS011;4561;47.450;7.516;2023-04-22T06:44:18;3.33;;;2.07;;
9052;SDS011;4561;47.450;7.516;2023-04-22T06:47:38;4.60;;;4.03;;
9052;SDS011;4561;47.450;7.516;2023-04-22T06:51:01;4.23;;;3.23;;
9052;SDS011;4561;47.450;7.516;2023-04-22T06:54:24;4.20;;;3.23;;
9052;SDS011;4561;47.450;7.516;2023-04-22T06:57:44;3.77;;;3.37;;
9052;SDS011;4561;47.450;7.516;2023-04-22T07:01:04;4.57;;;2.80;;
9052;SDS011;4561;47.450;7.516;2023-04-22T07:04:25;4.77;;;2.30;;
9052;SDS011;4561;47.450;7.516;2023-04-22T07:07:48;6.00;;;3.67;;
9052;SDS011;4561;47.450;7.516;2023-04-22T07:11:08;3.70;;;3.40;;
9052;SDS011;4561;47.450;7.516;2023-04-22T07:14:29;3.53;;;3.23;;
9052;SDS011;4561;47.450;7.516;2023-04-22T07:17:52;8.63;;;3.87;;
9052;SDS011;4561;47.450;7.516;2023-04-22T07:21:12;3.90;;;3.57;;
9052;SDS011;4561;47.450;7.516;2023-04-22T07:24:33;3.40;;;3.10;;
9052;SDS011;4561;47.450;7.516;2023-04-22T07:27:53;4.53;;;3.23;;
9052;SDS011;4561;47.450;7.516;2023-04-22T07:31:14;4.83;;;3.20;;
9052;SDS011;4561;47.450;7.516;2023-04-22T07:34:34;3.70;;;2.30;;
9052;SDS011;4561;47.450;7.516;2023-04-22T07:37:55;2.20;;;2.00;;
9052;SDS011;4561;47.450;7.516;2023-04-22T07:41:15;8.53;;;3.10;;
9052;SDS011;4561;47.450;7.516;2023-04-22T07:44:36;4.03;;;2.60;;
9052;SDS011;4561;47.450;7.516;2023-04-22T07:47:56;3.27;;;1.87;;
9052;SDS011;4561;47.450;7.516;2023-04-22T07:51:22;2.47;;;2.17;;
9052;SDS011;4561;47.450;7.516;2023-04-22T07:54:42;6.60;;;4.50;;
9052;SDS011;4561;47.450;7.516;2023-04-22T07:58:03;4.67;;;4.27;;
9052;SDS011;4561;47.450;7.516;2023-04-22T08:01:25;6.50;;;5.10;;
9052;SDS011;4561;47.450;7.516;2023-04-22T08:04:45;4.53;;;3.90;;
9052;SDS011;4561;47.450;7.516;2023-04-22T08:08:06;5.27;;;4.30;;
9052;SDS011;4561;47.450;7.516;2023-04-22T08:11:28;5.07;;;3.53;;
9052;SDS011;4561;47.450;7.516;2023-04-22T08:14:49;3.17;;;2.50;;
9052;SDS011;4561;47.450;7.516;2023-04-22T08:18:09;2.97;;;2.77;;
9052;SDS011;4561;47.450;7.516;2023-04-22T08:21:30;9.17;;;4.90;;
9052;SDS011;4561;47.450;7.516;2023-04-22T08:24:52;8.53;;;6.30;;
9052;SDS011;4561;47.450;7.516;2023-04-22T08:28:12;22.53;;;12.87;;
9052;SDS011;4561;47.450;7.516;2023-04-22T08:31:33;23.40;;;17.40;;
9052;SDS011;4561;47.450;7.516;2023-04-22T08:34:56;8.37;;;6.13;;
9052;SDS011;4561;47.450;7.516;2023-04-22T08:38:16;4.83;;;3.83;;
9052;SDS011;4561;47.450;7.516;2023-04-22T08:41:37;3.73;;;2.90;;
9052;SDS011;4561;47.450;7.516;2023-04-22T08:44:58;4.20;;;3.80;;
9052;SDS011;4561;47.450;7.516;2023-04-22T08:48:19;2.43;;;1.60;;
9052;SDS011;4561;47.450;7.516;2023-04-22T08:51:39;3.73;;;1.80;;
9052;SDS011;4561;47.450;7.516;2023-04-22T08:55:00;4.27;;;2.27;;
9052;SDS011;4561;47.450;7.516;2023-04-22T08:58:21;6.90;;;2.63;;
9052;SDS011;4561;47.450;7.516;2023-04-22T09:01:42;5.67;;;1.97;;
9052;SDS011;4561;47.450;7.516;2023-04-22T09:05:04;3.83;;;2.10;;
9052;SDS011;4561;47.450;7.516;2023-04-22T09:08:25;2.70;;;2.50;;
9052;SDS011;4561;47.450;7.516;2023-04-22T09:11:48;4.73;;;3.73;;
9052;SDS011;4561;47.450;7.516;2023-04-22T09:15:08;4.87;;;3.40;;
9052;SDS011;4561;47.450;7.516;2023-04-22T09:18:29;3.33;;;2.67;;
9052;SDS011;4561;47.450;7.516;2023-04-22T09:21:59;7.43;;;6.13;;
9052;SDS011;4561;47.450;7.516;2023-04-22T09:25:20;9.70;;;3.37;;
9052;SDS011;4561;47.450;7.516;2023-04-22T09:28:48;4.13;;;2.00;;
9052;SDS011;4561;47.450;7.516;2023-04-22T09:32:09;6.93;;;2.07;;
9052;SDS011;4561;47.450;7.516;2023-04-22T09:35:31;2.73;;;2.23;;
9052;SDS011;4561;47.450;7.516;2023-04-22T09:42:26;5.13;;;2.37;;
9052;SDS011;4561;47.450;7.516;2023-04-22T09:45:48;8.10;;;2.30;;
9052;SDS011;4561;47.450;7.516;2023-04-22T09:49:11;2.13;;;1.70;;
9052;SDS011;4561;47.450;7.516;2023-04-22T09:52:35;2.80;;;1.93;;
9052;SDS011;4561;47.450;7.516;2023-04-22T09:55:55;4.10;;;2.03;;
9052;SDS011;4561;47.450;7.516;2023-04-22T09:59:25;2.03;;;1.70;;
9052;SDS011;4561;47.450;7.516;2023-04-22T10:02:51;2.63;;;1.67;;
9052;SDS011;4561;47.450;7.516;2023-04-22T10:06:12;4.23;;;1.80;;
9052;SDS011;4561;47.450;7.516;2023-04-22T10:09:32;3.03;;;1.93;;
9052;SDS011;4561;47.450;7.516;2023-04-22T10:12:56;3.80;;;1.70;;
9052;SDS011;4561;47.450;7.516;2023-04-22T10:16:17;2.83;;;2.03;;
9052;SDS011;4561;47.450;7.516;2023-04-22T10:19:39;2.90;;;1.80;;
9052;SDS011;4561;47.450;7.516;2023-04-22T10:23:02;3.73;;;1.80;;
9052;SDS011;4561;47.450;7.516;2023-04-22T10:30:00;2.33;;;1.83;;
9052;SDS011;4561;47.450;7.516;2023-04-22T10:36:59;5.20;;;1.87;;
9052;SDS011;4561;47.450;7.516;2023-04-22T10:40:27;5.47;;;1.70;;
9052;SDS011;4561;47.450;7.516;2023-04-22T10:43:48;2.17;;;1.57;;
9052;SDS011;4561;47.450;7.516;2023-04-22T10:47:50;3.30;;;1.90;;
9052;SDS011;4561;47.450;7.516;2023-04-22T10:51:06;5.00;;;1.67;;
9052;SDS011;4561;47.450;7.516;2023-04-22T10:55:02;2.60;;;1.70;;
9052;SDS011;4561;47.450;7.516;2023-04-22T10:58:25;2.53;;;1.90;;
9052;SDS011;4561;47.450;7.516;2023-04-22T11:01:45;4.57;;;1.67;;
9052;SDS011;4561;47.450;7.516;2023-04-22T11:05:25;6.40;;;2.17;;
9052;SDS011;4561;47.450;7.516;2023-04-22T11:08:47;3.97;;;1.57;;
9052;SDS011;4561;47.450;7.516;2023-04-22T11:15:54;3.60;;;1.80;;
9052;SDS011;4561;47.450;7.516;2023-04-22T11:19:15;6.43;;;2.30;;
9052;SDS011;4561;47.450;7.516;2023-04-22T11:22:37;3.47;;;1.70;;
9052;SDS011;4561;47.450;7.516;2023-04-22T11:26:01;3.07;;;1.60;;
9052;SDS011;4561;47.450;7.516;2023-04-22T11:29:23;3.83;;;1.60;;
9052;SDS011;4561;47.450;7.516;2023-04-22T11:32:47;3.33;;;1.70;;
9052;SDS011;4561;47.450;7.516;2023-04-22T11:36:10;3.80;;;1.70;;
9052;SDS011;4561;47.450;7.516;2023-04-22T11:39:34;2.57;;;1.77;;
9052;SDS011;4561;47.450;7.516;2023-04-22T11:42:56;2.07;;;1.90;;
9052;SDS011;4561;47.450;7.516;2023-04-22T11:46:26;3.07;;;1.77;;
9052;SDS011;4561;47.450;7.516;2023-04-22T11:49:59;3.33;;;1.67;;
9052;SDS011;4561;47.450;7.516;2023-04-22T11:53:24;2.53;;;1.87;;
9052;SDS011;4561;47.450;7.516;2023-04-22T11:56:46;2.80;;;1.53;;
9052;SDS011;4561;47.450;7.516;2023-04-22T12:00:12;3.20;;;1.57;;
9052;SDS011;4561;47.450;7.516;2023-04-22T12:03:33;3.60;;;1.90;;
9052;SDS011;4561;47.450;7.516;2023-04-22T12:06:54;3.10;;;2.10;;
9052;SDS011;4561;47.450;7.516;2023-04-22T12:10:14;2.77;;;1.87;;
9052;SDS011;4561;47.450;7.516;2023-04-22T12:16:55;2.30;;;1.73;;
9052;SDS011;4561;47.450;7.516;2023-04-22T12:20:15;4.23;;;1.83;;
9052;SDS011;4561;47.450;7.516;2023-04-22T12:23:42;2.33;;;1.50;;
9052;SDS011;4561;47.450;7.516;2023-04-22T12:27:03;6.00;;;1.83;;
9052;SDS011;4561;47.450;7.516;2023-04-22T12:30:24;2.20;;;1.77;;
9052;SDS011;4561;47.450;7.516;2023-04-22T12:33:45;3.83;;;1.43;;
9052;SDS011;4561;47.450;7.516;2023-04-22T12:37:05;2.97;;;1.43;;
9052;SDS011;4561;47.450;7.516;2023-04-22T12:40:26;2.23;;;1.30;;
9052;SDS011;4561;47.450;7.516;2023-04-22T12:43:46;4.87;;;1.80;;
9052;SDS011;4561;47.450;7.516;2023-04-22T12:47:07;1.90;;;1.43;;
9052;SDS011;4561;47.450;7.516;2023-04-22T12:50:28;3.63;;;1.57;;
9052;SDS011;4561;47.450;7.516;2023-04-22T12:53:51;3.30;;;1.60;;
9052;SDS011;4561;47.450;7.516;2023-04-22T12:57:14;1.83;;;1.40;;
9052;SDS011;4561;47.450;7.516;2023-04-22T13:00:34;2.60;;;1.60;;
9052;SDS011;4561;47.450;7.516;2023-04-22T13:03:55;2.10;;;1.47;;
9052;SDS011;4561;47.450;7.516;2023-04-22T13:07:15;1.90;;;1.50;;
9052;SDS011;4561;47.450;7.516;2023-04-22T13:10:36;2.10;;;1.40;;
9052;SDS011;4561;47.450;7.516;2023-04-22T13:13:59;2.77;;;1.80;;
9052;SDS011;4561;47.450;7.516;2023-04-22T13:17:20;2.50;;;1.50;;
9052;SDS011;4561;47.450;7.516;2023-04-22T13:20:40;2.00;;;1.33;;
9052;SDS011;4561;47.450;7.516;2023-04-22T13:24:01;4.30;;;2.10;;
9052;SDS011;4561;47.450;7.516;2023-04-22T13:27:22;2.43;;;1.50;;
9052;SDS011;4561;47.450;7.516;2023-04-22T13:30:42;2.57;;;1.30;;
9052;SDS011;4561;47.450;7.516;2023-04-22T13:34:03;3.57;;;1.70;;
9052;SDS011;4561;47.450;7.516;2023-04-22T13:37:26;2.57;;;1.60;;
9052;SDS011;4561;47.450;7.516;2023-04-22T13:40:47;1.57;;;1.30;;
9052;SDS011;4561;47.450;7.516;2023-04-22T13:44:09;2.40;;;1.60;;
9052;SDS011;4561;47.450;7.516;2023-04-22T13:47:32;5.80;;;1.33;;
9052;SDS011;4561;47.450;7.516;2023-04-22T13:50:56;2.67;;;1.37;;
9052;SDS011;4561;47.450;7.516;2023-04-22T13:54:19;1.43;;;1.33;;
9052;SDS011;4561;47.450;7.516;2023-04-22T13:57:39;1.87;;;1.40;;
9052;SDS011;4561;47.450;7.516;2023-04-22T14:01:00;1.53;;;1.20;;
9052;SDS011;4561;47.450;7.516;2023-04-22T14:04:20;2.73;;;1.50;;
9052;SDS011;4561;47.450;7.516;2023-04-22T14:07:40;2.17;;;1.60;;
9052;SDS011;4561;47.450;7.516;2023-04-22T14:11:01;2.03;;;1.30;;
9052;SDS011;4561;47.450;7.516;2023-04-22T14:14:22;1.93;;;1.47;;
9052;SDS011;4561;47.450;7.516;2023-04-22T14:17:42;2.23;;;1.47;;
9052;SDS011;4561;47.450;7.516;2023-04-22T14:21:08;2.13;;;1.23;;
9052;SDS011;4561;47.450;7.516;2023-04-22T14:24:28;3.03;;;1.63;;
9052;SDS011;4561;47.450;7.516;2023-04-22T14:27:52;4.53;;;1.50;;
9052;SDS011;4561;47.450;7.516;2023-04-22T14:31:13;1.93;;;1.40;;
9052;SDS011;4561;47.450;7.516;2023-04-22T14:34:34;4.47;;;1.47;;
9052;SDS011;4561;47.450;7.516;2023-04-22T14:37:54;2.63;;;1.83;;
9052;SDS011;4561;47.450;7.516;2023-04-22T14:41:15;1.83;;;1.60;;
9052;SDS011;4561;47.450;7.516;2023-04-22T14:44:35;1.70;;;1.53;;
9052;SDS011;4561;47.450;7.516;2023-04-22T14:47:56;4.53;;;2.00;;
9052;SDS011;4561;47.450;7.516;2023-04-22T14:51:16;2.20;;;1.70;;
9052;SDS011;4561;47.450;7.516;2023-04-22T14:54:39;2.40;;;1.43;;
9052;SDS011;4561;47.450;7.516;2023-04-22T14:58:00;3.17;;;1.30;;
9052;SDS011;4561;47.450;7.516;2023-04-22T15:01:20;2.73;;;1.90;;
9052;SDS011;4561;47.450;7.516;2023-04-22T15:04:42;3.17;;;1.47;;
9052;SDS011;4561;47.450;7.516;2023-04-22T15:08:03;1.80;;;1.53;;
9052;SDS011;4561;47.450;7.516;2023-04-22T15:11:23;3.13;;;2.43;;
9052;SDS011;4561;47.450;7.516;2023-04-22T15:14:43;3.50;;;3.17;;
9052;SDS011;4561;47.450;7.516;2023-04-22T15:18:06;2.83;;;2.30;;
9052;SDS011;4561;47.450;7.516;2023-04-22T15:21:27;4.63;;;1.97;;
9052;SDS011;4561;47.450;7.516;2023-04-22T15:24:51;1.70;;;1.50;;
9052;SDS011;4561;47.450;7.516;2023-04-22T15:28:11;2.60;;;1.83;;
9052;SDS011;4561;47.450;7.516;2023-04-22T15:31:31;5.70;;;2.17;;
9052;SDS011;4561;47.450;7.516;2023-04-22T15:34:55;2.17;;;1.47;;
9052;SDS011;4561;47.450;7.516;2023-04-22T15:38:15;2.80;;;1.97;;
9052;SDS011;4561;47.450;7.516;2023-04-22T15:41:38;2.50;;;1.67;;
9052;SDS011;4561;47.450;7.516;2023-04-22T15:45:00;2.93;;;1.73;;
9052;SDS011;4561;47.450;7.516;2023-04-22T15:48:21;7.13;;;2.20;;
9052;SDS011;4561;47.450;7.516;2023-04-22T15:51:41;3.67;;;2.27;;
9052;SDS011;4561;47.450;7.516;2023-04-22T15:55:02;6.73;;;3.00;;
9052;SDS011;4561;47.450;7.516;2023-04-22T15:58:23;5.50;;;2.60;;
9052;SDS011;4561;47.450;7.516;2023-04-22T16:01:44;3.50;;;2.40;;
9052;SDS011;4561;47.450;7.516;2023-04-22T16:05:04;7.60;;;4.80;;
9052;SDS011;4561;47.450;7.516;2023-04-22T16:08:27;3.10;;;1.80;;
9052;SDS011;4561;47.450;7.516;2023-04-22T16:11:48;4.33;;;2.00;;
9052;SDS011;4561;47.450;7.516;2023-04-22T16:15:08;3.33;;;1.67;;
9052;SDS011;4561;47.450;7.516;2023-04-22T16:18:29;1.93;;;1.40;;
9052;SDS011;4561;47.450;7.516;2023-04-22T16:21:52;6.13;;;2.10;;
9052;SDS011;4561;47.450;7.516;2023-04-22T16:25:13;4.50;;;2.80;;
9052;SDS011;4561;47.450;7.516;2023-04-22T16:28:35;4.83;;;2.50;;
9052;SDS011;4561;47.450;7.516;2023-04-22T16:31:56;2.50;;;2.13;;
9052;SDS011;4561;47.450;7.516;2023-04-22T16:35:16;4.07;;;2.10;;
9052;SDS011;4561;47.450;7.516;2023-04-22T16:38:37;2.77;;;2.00;;
9052;SDS011;4561;47.450;7.516;2023-04-22T16:41:57;4.47;;;1.80;;
9052;SDS011;4561;47.450;7.516;2023-04-22T16:45:18;2.73;;;2.37;;
9052;SDS011;4561;47.450;7.516;2023-04-22T16:48:38;2.70;;;1.97;;
9052;SDS011;4561;47.450;7.516;2023-04-22T16:51:59;3.70;;;1.70;;
9052;SDS011;4561;47.450;7.516;2023-04-22T16:55:19;2.37;;;1.50;;
9052;SDS011;4561;47.450;7.516;2023-04-22T16:58:39;4.10;;;1.80;;
9052;SDS011;4561;47.450;7.516;2023-04-22T17:02:00;4.90;;;1.63;;
9052;SDS011;4561;47.450;7.516;2023-04-22T17:05:20;3.90;;;1.83;;
9052;SDS011;4561;47.450;7.516;2023-04-22T17:08:41;4.27;;;2.10;;
9052;SDS011;4561;47.450;7.516;2023-04-22T17:12:04;3.47;;;2.00;;
9052;SDS011;4561;47.450;7.516;2023-04-22T17:15:25;6.20;;;2.60;;
9052;SDS011;4561;47.450;7.516;2023-04-22T17:18:45;4.17;;;2.00;;
9052;SDS011;4561;47.450;7.516;2023-04-22T17:22:06;3.00;;;1.90;;
9052;SDS011;4561;47.450;7.516;2023-04-22T17:25:26;3.60;;;2.37;;
9052;SDS011;4561;47.450;7.516;2023-04-22T17:28:50;2.57;;;1.87;;
9052;SDS011;4561;47.450;7.516;2023-04-22T17:32:12;3.80;;;1.97;;
9052;SDS011;4561;47.450;7.516;2023-04-22T17:35:33;2.20;;;2.00;;
9052;SDS011;4561;47.450;7.516;2023-04-22T17:38:53;3.50;;;1.90;;
9052;SDS011;4561;47.450;7.516;2023-04-22T17:42:16;3.27;;;1.70;;
9052;SDS011;4561;47.450;7.516;2023-04-22T17:45:36;3.37;;;1.87;;
9052;SDS011;4561;47.450;7.516;2023-04-22T17:48:57;2.73;;;1.93;;
9052;SDS011;4561;47.450;7.516;2023-04-22T17:52:17;4.00;;;1.90;;
9052;SDS011;4561;47.450;7.516;2023-04-22T17:55:37;2.73;;;2.07;;
9052;SDS011;4561;47.450;7.516;2023-04-22T17:58:58;3.83;;;1.90;;
9052;SDS011;4561;47.450;7.516;2023-04-22T18:02:18;5.33;;;1.80;;
9052;SDS011;4561;47.450;7.516;2023-04-22T18:05:40;2.60;;;2.17;;
9052;SDS011;4561;47.450;7.516;2023-04-22T18:09:03;2.90;;;1.67;;
9052;SDS011;4561;47.450;7.516;2023-04-22T18:12:24;3.20;;;1.83;;
9052;SDS011;4561;47.450;7.516;2023-04-22T18:15:47;3.87;;;3.00;;
9052;SDS011;4561;47.450;7.516;2023-04-22T18:19:08;7.47;;;2.07;;
9052;SDS011;4561;47.450;7.516;2023-04-22T18:22:30;2.70;;;2.00;;
9052;SDS011;4561;47.450;7.516;2023-04-22T18:25:51;3.00;;;1.93;;
9052;SDS011;4561;47.450;7.516;2023-04-22T18:29:12;2.93;;;2.00;;
9052;SDS011;4561;47.450;7.516;2023-04-22T18:32:34;3.93;;;2.20;;
9052;SDS011;4561;47.450;7.516;2023-04-22T18:35:58;4.00;;;2.33;;
9052;SDS011;4561;47.450;7.516;2023-04-22T18:39:21;3.50;;;2.30;;
9052;SDS011;4561;47.450;7.516;2023-04-22T18:42:42;4.87;;;2.83;;
9052;SDS011;4561;47.450;7.516;2023-04-22T18:46:06;3.87;;;2.70;;
9052;SDS011;4561;47.450;7.516;2023-04-22T18:49:27;4.07;;;2.13;;
9052;SDS011;4561;47.450;7.516;2023-04-22T18:52:47;4.97;;;4.10;;
9052;SDS011;4561;47.450;7.516;2023-04-22T18:56:08;5.63;;;3.70;;
9052;SDS011;4561;47.450;7.516;2023-04-22T18:59:28;4.93;;;2.43;;
9052;SDS011;4561;47.450;7.516;2023-04-22T19:02:51;3.57;;;2.70;;
9052;SDS011;4561;47.450;7.516;2023-04-22T19:06:13;3.60;;;2.73;;
9052;SDS011;4561;47.450;7.516;2023-04-22T19:09:34;2.60;;;2.20;;
9052;SDS011;4561;47.450;7.516;2023-04-22T19:12:57;2.50;;;1.90;;
9052;SDS011;4561;47.450;7.516;2023-04-22T19:16:18;2.90;;;1.97;;
9052;SDS011;4561;47.450;7.516;2023-04-22T19:19:39;2.53;;;1.80;;
9052;SDS011;4561;47.450;7.516;2023-04-22T19:22:59;2.50;;;2.00;;
9052;SDS011;4561;47.450;7.516;2023-04-22T19:26:19;4.97;;;2.63;;
9052;SDS011;4561;47.450;7.516;2023-04-22T19:29:41;3.70;;;2.20;;
9052;SDS011;4561;47.450;7.516;2023-04-22T19:33:02;4.63;;;2.50;;
9052;SDS011;4561;47.450;7.516;2023-04-22T19:36:22;3.17;;;2.47;;
9052;SDS011;4561;47.450;7.516;2023-04-22T19:39:45;4.77;;;2.60;;
9052;SDS011;4561;47.450;7.516;2023-04-22T19:43:08;3.67;;;2.40;;
9052;SDS011;4561;47.450;7.516;2023-04-22T19:46:29;3.67;;;2.30;;
9052;SDS011;4561;47.450;7.516;2023-04-22T19:49:51;4.90;;;2.60;;
9052;SDS011;4561;47.450;7.516;2023-04-22T19:53:15;2.47;;;2.20;;
9052;SDS011;4561;47.450;7.516;2023-04-22T19:56:37;3.30;;;2.43;;
9052;SDS011;4561;47.450;7.516;2023-04-22T19:59:58;2.70;;;2.20;;
9052;SDS011;4561;47.450;7.516;2023-04-22T20:03:19;2.27;;;2.03;;
9052;SDS011;4561;47.450;7.516;2023-04-22T20:06:42;4.93;;;2.23;;
9052;SDS011;4561;47.450;7.516;2023-04-22T20:10:04;5.33;;;2.97;;
9052;SDS011;4561;47.450;7.516;2023-04-22T20:13:27;13.47;;;10.93;;
9052;SDS011;4561;47.450;7.516;2023-04-22T20:16:48;6.47;;;4.77;;
9052;SDS011;4561;47.450;7.516;2023-04-22T20:20:08;2.63;;;2.30;;
9052;SDS011;4561;47.450;7.516;2023-04-22T20:23:34;5.33;;;3.97;;
9052;SDS011;4561;47.450;7.516;2023-04-22T20:26:57;4.37;;;2.67;;
9052;SDS011;4561;47.450;7.516;2023-04-22T20:30:17;3.13;;;2.33;;
9052;SDS011;4561;47.450;7.516;2023-04-22T20:33:38;3.33;;;2.70;;
9052;SDS011;4561;47.450;7.516;2023-04-22T20:37:01;4.97;;;3.50;;
9052;SDS011;4561;47.450;7.516;2023-04-22T20:40:25;3.67;;;3.27;;
9052;SDS011;4561;47.450;7.516;2023-04-22T20:43:46;5.27;;;3.63;;
9052;SDS011;4561;47.450;7.516;2023-04-22T20:47:06;3.63;;;3.17;;
9052;SDS011;4561;47.450;7.516;2023-04-22T20:50:29;5.03;;;3.60;;
9052;SDS011;4561;47.450;7.516;2023-04-22T20:53:54;2.97;;;2.60;;
9052;SDS011;4561;47.450;7.516;2023-04-22T20:57:15;6.73;;;2.57;;
9052;SDS011;4561;47.450;7.516;2023-04-22T21:00:36;2.90;;;2.10;;
9052;SDS011;4561;47.450;7.516;2023-04-22T21:03:56;3.63;;;2.37;;
9052;SDS011;4561;47.450;7.516;2023-04-22T21:07:17;5.57;;;2.70;;
9052;SDS011;4561;47.450;7.516;2023-04-22T21:10:40;5.20;;;2.40;;